Time;durP1;ratioP1;P1;durP2;ratioP2;P2;SDS_P1;SDS_P2;PMS_P1;PMS_P2;Temp;Humidity;BMP_temperature;BMP_pressure;BME280_temperature;BME280_humidity;BME280_pressure;Samples;Min_cycle;Max_cycle;Signal;HPM_P1;HPM_P2
2023/11/08 00:01:36;;;;;;;6.30;3.15;;;6.40;99.90;;;;;;487091;238;27924;-74
2023/11/08 00:03:38;;;;;;;28.42;21.08;;;6.40;99.90;;;;;;494900;240;27454;-73
2023/11/08 00:05:39;;;;;;;11.70;10.52;;;6.40;99.90;;;;;;494860;240;27603;-73
2023/11/08 00:07:41;;;;;;;9.68;5.10;;;6.40;99.90;;;;;;494891;240;27457;-73
2023/11/08 00:09:41;;;;;;;22.42;16.73;;;6.40;99.90;;;;;;494880;240;27473;-73
2023/11/08 00:11:43;;;;;;;8.85;6.15;;;6.40;99.90;;;;;;492139;235;28062;-74
2023/11/08 00:13:44;;;;;;;8.43;5.43;;;6.40;99.90;;;;;;477370;248;28089;-72
2023/11/08 00:15:45;;;;;;;12.07;5.85;;;6.40;99.90;;;;;;486214;244;27403;-73
2023/11/08 00:17:46;;;;;;;5.32;3.70;;;6.50;99.90;;;;;;486321;244;27414;-72
2023/11/08 00:19:48;;;;;;;4.12;2.50;;;6.50;99.90;;;;;;486334;244;27419;-73
2023/11/08 00:21:49;;;;;;;8.38;2.35;;;6.50;99.90;;;;;;479656;240;27593;-73
2023/11/08 00:23:50;;;;;;;6.82;2.20;;;6.50;99.90;;;;;;484375;244;27952;-73
2023/11/08 00:25:53;;;;;;;6.18;2.12;;;6.50;99.90;;;;;;484357;242;28038;-73
2023/11/08 00:27:53;;;;;;;3.55;2.22;;;6.50;99.90;;;;;;484367;245;27922;-73
2023/11/08 00:29:54;;;;;;;6.78;2.00;;;6.50;99.90;;;;;;484289;245;27440;-73
2023/11/08 00:31:55;;;;;;;5.97;2.00;;;6.40;99.90;;;;;;477037;243;27503;-73
2023/11/08 00:33:56;;;;;;;4.35;2.25;;;6.40;99.90;;;;;;467490;254;27468;-73
2023/11/08 00:35:58;;;;;;;4.18;1.75;;;6.40;99.90;;;;;;467477;254;27436;-73
2023/11/08 00:37:59;;;;;;;5.55;2.10;;;6.40;99.90;;;;;;467485;254;27976;-73
2023/11/08 00:40:00;;;;;;;5.93;2.42;;;6.50;99.90;;;;;;467466;254;27989;-73
2023/11/08 00:42:02;;;;;;;3.08;2.00;;;6.50;99.90;;;;;;467419;254;27678;-74
2023/11/08 00:44:03;;;;;;;6.40;2.05;;;6.50;99.90;;;;;;467452;254;27480;-73
2023/11/08 00:46:04;;;;;;;6.15;2.60;;;6.50;99.90;;;;;;467503;254;27487;-73
2023/11/08 00:48:05;;;;;;;7.10;2.62;;;6.50;99.90;;;;;;467479;254;27515;-73
2023/11/08 00:50:07;;;;;;;7.35;2.50;;;6.50;99.90;;;;;;467475;254;27516;-73
2023/11/08 00:52:11;;;;;;;7.97;2.20;;;6.40;99.90;;;;;;467462;254;28119;-73
2023/11/08 00:54:11;;;;;;;6.53;2.35;;;6.40;99.90;;;;;;467264;254;27600;-75
2023/11/08 00:56:12;;;;;;;6.32;2.22;;;6.40;99.90;;;;;;467284;254;27445;-73
2023/11/08 00:58:12;;;;;;;4.22;1.85;;;6.40;99.90;;;;;;467361;254;27476;-73
2023/11/08 01:00:14;;;;;;;8.05;2.60;;;6.40;99.90;;;;;;467388;251;27592;-72
2023/11/08 01:02:14;;;;;;;6.05;2.00;;;6.40;99.90;;;;;;469351;244;27535;-73
2023/11/08 01:04:15;;;;;;;9.20;2.17;;;6.40;99.90;;;;;;469477;251;27962;-74
2023/11/08 01:06:17;;;;;;;4.65;2.30;;;6.30;99.90;;;;;;469444;251;28605;-73
2023/11/08 01:08:18;;;;;;;5.53;1.80;;;6.30;99.90;;;;;;469440;251;28014;-73
2023/11/08 01:10:21;;;;;;;4.15;2.05;;;6.30;99.90;;;;;;469537;251;27447;-72
2023/11/08 01:12:20;;;;;;;6.78;2.10;;;6.20;99.90;;;;;;476805;243;27473;-73
2023/11/08 01:14:22;;;;;;;6.03;2.20;;;6.20;99.90;;;;;;494119;236;27527;-73
2023/11/08 01:16:23;;;;;;;7.97;2.17;;;6.30;99.90;;;;;;494131;240;27520;-72
2023/11/08 01:18:24;;;;;;;6.20;1.95;;;6.20;99.90;;;;;;494074;240;27525;-74
2023/11/08 01:20:25;;;;;;;7.65;2.10;;;6.20;99.90;;;;;;492015;241;27992;-74
2023/11/08 01:22:27;;;;;;;10.90;2.30;;;6.20;99.90;;;;;;498375;234;28029;-73
2023/11/08 01:24:28;;;;;;;5.18;2.40;;;6.20;99.90;;;;;;496198;239;27484;-73
2023/11/08 01:26:29;;;;;;;4.53;1.85;;;6.20;99.90;;;;;;502081;237;27428;-72
2023/11/08 01:28:31;;;;;;;4.20;2.72;;;6.20;99.90;;;;;;502184;237;27456;-73
2023/11/08 01:30:33;;;;;;;5.00;2.30;;;6.20;99.90;;;;;;502218;237;27413;-73
2023/11/08 01:32:33;;;;;;;3.75;1.70;;;6.20;99.90;;;;;;502264;235;27430;-73
2023/11/08 01:34:34;;;;;;;7.03;2.20;;;6.20;99.90;;;;;;504050;236;27872;-73
2023/11/08 01:36:35;;;;;;;7.45;2.10;;;6.20;99.90;;;;;;504059;236;28911;-72
2023/11/08 01:38:39;;;;;;;3.10;1.98;;;6.20;99.90;;;;;;504066;236;27351;-72
2023/11/08 01:40:38;;;;;;;6.10;2.37;;;6.20;99.90;;;;;;503686;236;27522;-73
2023/11/08 01:42:39;;;;;;;8.57;2.97;;;6.20;99.90;;;;;;487213;236;27517;-72
2023/11/08 01:44:40;;;;;;;8.10;2.70;;;6.20;99.90;;;;;;482423;242;27498;-73
2023/11/08 01:46:42;;;;;;;4.43;2.37;;;6.30;99.90;;;;;;481581;246;27529;-73
2023/11/08 01:48:43;;;;;;;4.50;2.10;;;6.30;99.90;;;;;;481482;246;28037;-73
2023/11/08 01:50:44;;;;;;;5.07;2.28;;;6.30;99.90;;;;;;481655;246;28045;-73
2023/11/08 01:52:45;;;;;;;4.93;2.10;;;6.20;99.90;;;;;;473811;237;27602;-74
2023/11/08 01:54:49;;;;;;;4.60;2.28;;;6.20;99.90;;;;;;472609;251;27578;-73
2023/11/08 01:56:48;;;;;;;8.35;2.20;;;6.20;99.90;;;;;;472636;251;27567;-75
2023/11/08 01:58:49;;;;;;;6.60;2.35;;;6.20;99.90;;;;;;472721;251;27424;-73
2023/11/08 02:00:51;;;;;;;2.10;1.90;;;6.20;99.90;;;;;;472745;247;27543;-73
2023/11/08 02:02:52;;;;;;;5.40;2.00;;;6.20;99.90;;;;;;475349;237;28633;-73
2023/11/08 02:04:53;;;;;;;7.00;2.22;;;6.20;99.90;;;;;;474709;249;27933;-73
2023/11/08 02:06:54;;;;;;;9.27;2.37;;;6.20;99.90;;;;;;474696;249;27551;-73
2023/11/08 02:08:56;;;;;;;7.35;2.90;;;6.30;99.90;;;;;;474699;249;27456;-73
2023/11/08 02:13:03;;;;;;;6.72;2.20;;;6.20;99.90;;;;;;478438;241;28117;-75
2023/11/08 02:15:03;;;;;;;3.35;2.05;;;6.20;99.90;;;;;;478082;247;28062;-73
2023/11/08 02:17:05;;;;;;;9.15;3.10;;;6.20;99.90;;;;;;478167;247;27991;-73
2023/11/08 02:19:09;;;;;;;3.25;2.45;;;6.20;99.90;;;;;;478137;247;27501;-73
2023/11/08 02:21:08;;;;;;;5.47;2.35;;;6.20;99.90;;;;;;478259;238;27542;-72
2023/11/08 02:23:08;;;;;;;11.65;2.70;;;6.20;99.90;;;;;;489588;242;27509;-74
2023/11/08 02:25:11;;;;;;;4.05;2.70;;;6.20;99.90;;;;;;490605;242;27511;-72
2023/11/08 02:27:11;;;;;;;7.85;2.87;;;6.20;99.90;;;;;;490534;242;27913;-73
2023/11/08 02:29:12;;;;;;;5.10;3.72;;;6.20;99.90;;;;;;490581;242;27990;-73
2023/11/08 02:31:14;;;;;;;10.38;4.15;;;6.20;99.90;;;;;;487915;242;27503;-74
2023/11/08 02:33:16;;;;;;;6.87;4.00;;;6.20;99.90;;;;;;475510;250;27434;-73
2023/11/08 02:35:16;;;;;;;7.45;3.15;;;6.10;99.90;;;;;;475529;250;27389;-73
2023/11/08 02:37:17;;;;;;;6.35;2.80;;;6.10;99.90;;;;;;475585;250;27517;-73
2023/11/08 02:39:19;;;;;;;9.07;3.50;;;6.20;99.90;;;;;;475633;250;27449;-73
2023/11/08 02:41:20;;;;;;;11.55;2.95;;;6.20;99.90;;;;;;477294;235;27881;-73
2023/11/08 02:43:22;;;;;;;10.35;2.90;;;6.20;99.90;;;;;;478870;248;27466;-74
2023/11/08 02:45:22;;;;;;;9.30;3.10;;;6.10;99.90;;;;;;478778;248;27495;-73
2023/11/08 02:47:23;;;;;;;6.20;3.08;;;6.20;99.90;;;;;;478848;248;27463;-73
2023/11/08 02:49:30;;;;;;;6.43;3.58;;;6.20;99.90;;;;;;478857;248;27458;-74
2023/11/08 02:51:28;;;;;;;4.35;3.00;;;6.20;99.90;;;;;;481875;240;27457;-72
2023/11/08 02:53:27;;;;;;;7.82;3.25;;;6.20;99.90;;;;;;494894;240;27992;-72
2023/11/08 02:55:28;;;;;;;6.55;2.50;;;6.20;99.90;;;;;;495029;240;27795;-73
2023/11/08 02:57:30;;;;;;;8.85;3.00;;;6.20;99.90;;;;;;495021;240;27359;-74
2023/11/08 02:59:31;;;;;;;6.62;2.60;;;6.20;99.90;;;;;;495028;240;27488;-74
2023/11/08 03:01:32;;;;;;;9.57;2.30;;;6.20;99.90;;;;;;491099;240;27472;-73
2023/11/08 03:03:34;;;;;;;5.85;2.50;;;6.20;99.90;;;;;;485924;244;27538;-73
2023/11/08 03:05:35;;;;;;;10.30;3.10;;;6.20;99.90;;;;;;485975;244;27423;-74
2023/11/08 03:07:36;;;;;;;4.60;3.30;;;6.20;99.90;;;;;;485937;244;27860;-73
2023/11/08 03:09:37;;;;;;;7.97;3.30;;;6.20;99.90;;;;;;485919;244;27919;-73
2023/11/08 03:11:39;;;;;;;11.05;2.80;;;6.20;99.90;;;;;;485367;237;27557;-73
2023/11/08 03:13:40;;;;;;;8.65;3.60;;;6.20;99.90;;;;;;483209;246;27506;-73
2023/11/08 03:15:41;;;;;;;7.25;3.08;;;6.20;99.90;;;;;;483177;246;27529;-74
2023/11/08 03:17:42;;;;;;;10.98;3.33;;;6.20;99.90;;;;;;483228;246;27549;-72
2023/11/08 03:19:44;;;;;;;9.18;3.10;;;6.20;99.90;;;;;;483149;246;27594;-73
2023/11/08 03:21:47;;;;;;;10.35;3.28;;;6.30;99.90;;;;;;483812;240;28707;-73
2023/11/08 03:23:46;;;;;;;5.03;2.40;;;6.20;99.90;;;;;;484550;245;27458;-72
2023/11/08 03:25:47;;;;;;;5.15;2.70;;;6.30;99.90;;;;;;484806;245;27407;-73
2023/11/08 03:27:49;;;;;;;7.15;2.42;;;6.30;99.90;;;;;;484751;245;27457;-73
2023/11/08 03:29:50;;;;;;;7.00;3.65;;;6.30;99.90;;;;;;484845;245;27417;-74
2023/11/08 03:31:51;;;;;;;5.20;3.10;;;6.30;99.90;;;;;;487955;236;27464;-73
2023/11/08 03:33:53;;;;;;;12.30;3.45;;;6.30;99.90;;;;;;495337;240;27537;-73
2023/11/08 03:35:54;;;;;;;8.23;3.47;;;6.30;99.90;;;;;;495318;240;27507;-74
2023/11/08 03:37:55;;;;;;;12.18;3.05;;;6.30;99.90;;;;;;495304;240;27515;-73
2023/11/08 03:39:56;;;;;;;6.75;3.20;;;6.30;99.90;;;;;;495231;240;27976;-72
2023/11/08 03:41:58;;;;;;;11.60;2.75;;;6.30;99.90;;;;;;489244;236;28088;-73
2023/11/08 03:44:03;;;;;;;5.28;2.60;;;6.30;99.90;;;;;;481738;246;27511;-72
2023/11/08 03:46:06;;;;;;;6.40;2.58;;;6.30;99.90;;;;;;481641;247;27534;-73
2023/11/08 03:48:04;;;;;;;11.82;2.85;;;6.30;99.90;;;;;;481416;247;27503;-73
2023/11/08 03:50:07;;;;;;;5.85;3.12;;;6.30;99.90;;;;;;481734;246;27527;-73
2023/11/08 03:52:07;;;;;;;10.32;2.92;;;6.30;99.90;;;;;;481387;236;27928;-73
2023/11/08 03:54:09;;;;;;;6.43;3.03;;;6.30;99.90;;;;;;480259;242;27923;-73
2023/11/08 03:56:10;;;;;;;10.32;8.95;;;6.30;99.90;;;;;;480578;247;27521;-74
2023/11/08 03:58:11;;;;;;;11.25;5.60;;;6.30;99.90;;;;;;480576;246;27370;-73
2023/11/08 04:00:12;;;;;;;8.48;4.72;;;6.30;99.90;;;;;;472976;246;27383;-73
2023/11/08 04:02:13;;;;;;;10.23;7.35;;;6.30;99.90;;;;;;482970;239;27386;-73
2023/11/08 04:04:14;;;;;;;9.30;6.00;;;6.30;99.90;;;;;;489131;239;27871;-73
2023/11/08 04:06:16;;;;;;;12.35;4.03;;;6.30;99.90;;;;;;489441;242;29303;-74
2023/11/08 04:08:17;;;;;;;8.02;3.58;;;6.40;99.90;;;;;;489470;239;27383;-74
2023/11/08 04:10:19;;;;;;;12.00;3.58;;;6.40;99.90;;;;;;489450;242;27403;-73
2023/11/08 04:12:21;;;;;;;10.70;4.90;;;6.30;99.90;;;;;;478664;239;27505;-73
2023/11/08 04:14:21;;;;;;;10.50;9.45;;;6.40;99.90;;;;;;474112;250;27504;-73
2023/11/08 04:16:22;;;;;;;15.45;11.93;;;6.40;99.90;;;;;;474902;250;28031;-74
2023/11/08 04:18:24;;;;;;;9.55;7.30;;;6.30;99.90;;;;;;474800;250;27588;-73
2023/11/08 04:20:25;;;;;;;22.00;11.12;;;6.30;99.90;;;;;;474804;250;27541;-73
2023/11/08 04:22:26;;;;;;;12.48;8.70;;;6.40;99.90;;;;;;480263;236;27974;-74
2023/11/08 04:24:27;;;;;;;9.00;3.67;;;6.40;99.90;;;;;;481800;244;28019;-73
2023/11/08 04:26:29;;;;;;;4.85;3.00;;;6.40;99.90;;;;;;482010;246;29006;-74
2023/11/08 04:28:30;;;;;;;11.48;3.75;;;6.40;99.90;;;;;;482004;246;27946;-73
2023/11/08 04:30:31;;;;;;;7.57;3.70;;;6.40;99.90;;;;;;482025;246;27996;-73
2023/11/08 04:32:32;;;;;;;7.97;3.30;;;6.40;99.90;;;;;;481522;236;27539;-75
2023/11/08 04:34:33;;;;;;;6.80;3.58;;;6.40;99.90;;;;;;481129;246;27404;-73
2023/11/08 04:36:35;;;;;;;6.53;3.00;;;6.40;99.90;;;;;;481084;247;27460;-73
2023/11/08 04:38:36;;;;;;;7.53;2.90;;;6.40;99.90;;;;;;481097;247;27441;-72
2023/11/08 04:40:40;;;;;;;6.72;3.10;;;6.40;99.90;;;;;;481123;246;27416;-73
2023/11/08 04:42:39;;;;;;;7.15;3.25;;;6.40;99.90;;;;;;480327;238;28010;-74
2023/11/08 04:44:40;;;;;;;11.73;3.17;;;6.40;99.90;;;;;;476294;250;27393;-73
2023/11/08 04:46:41;;;;;;;8.90;3.08;;;6.40;99.90;;;;;;476299;248;27455;-73
2023/11/08 04:48:43;;;;;;;7.37;3.10;;;6.40;99.90;;;;;;476285;250;27801;-72
2023/11/08 04:50:43;;;;;;;10.52;3.42;;;6.40;99.90;;;;;;476279;248;27393;-73
2023/11/08 04:52:45;;;;;;;13.27;3.97;;;6.30;99.90;;;;;;473542;241;28043;-73
2023/11/08 04:54:46;;;;;;;4.75;3.20;;;6.30;99.90;;;;;;483463;246;27390;-74
2023/11/08 04:56:47;;;;;;;7.07;2.85;;;6.40;99.90;;;;;;473223;250;27457;-73
2023/11/08 04:58:49;;;;;;;8.00;3.50;;;6.40;99.90;;;;;;483668;244;27440;-74
2023/11/08 05:00:50;;;;;;;7.00;2.95;;;6.40;99.90;;;;;;473190;251;27521;-73
2023/11/08 05:02:51;;;;;;;11.85;3.83;;;6.40;99.90;;;;;;489620;242;27515;-73
2023/11/08 05:04:52;;;;;;;6.78;3.22;;;6.40;99.90;;;;;;491107;241;28756;-73
2023/11/08 05:06:54;;;;;;;9.35;5.00;;;6.40;99.90;;;;;;491188;241;28016;-73
2023/11/08 05:08:56;;;;;;;5.37;3.45;;;6.40;99.90;;;;;;491111;241;27608;-73
2023/11/08 05:13:09;;;;;;;12.02;3.40;;;6.40;99.90;;;;;;452362;257;27538;-73
2023/11/08 05:15:09;;;;;;;8.85;4.30;;;6.40;99.90;;;;;;452135;262;27594;-74
2023/11/08 05:17:10;;;;;;;10.52;4.10;;;6.40;99.90;;;;;;452126;262;29168;-73
2023/11/08 05:19:12;;;;;;;4.40;3.17;;;6.40;99.90;;;;;;460615;258;28132;-73
2023/11/08 05:21:13;;;;;;;5.03;3.05;;;6.40;99.90;;;;;;457702;241;27537;-75
2023/11/08 05:23:14;;;;;;;3.35;3.05;;;6.40;99.90;;;;;;466549;254;27520;-73
2023/11/08 05:25:15;;;;;;;9.05;3.40;;;6.40;99.90;;;;;;466604;255;27561;-73
2023/11/08 05:27:18;;;;;;;7.18;3.05;;;6.50;99.90;;;;;;465793;255;27460;-75
2023/11/08 05:29:21;;;;;;;5.10;2.50;;;6.40;99.90;;;;;;466553;255;27512;-73
2023/11/08 05:31:23;;;;;;;3.12;2.40;;;6.50;99.90;;;;;;469813;242;28103;-73
2023/11/08 05:33:23;;;;;;;6.85;3.15;;;6.50;99.90;;;;;;472064;252;27576;-74
2023/11/08 05:35:25;;;;;;;12.18;3.28;;;6.50;99.90;;;;;;474202;250;27431;-73
2023/11/08 05:37:28;;;;;;;6.90;2.40;;;6.50;99.90;;;;;;485909;243;27518;-73
2023/11/08 05:39:27;;;;;;;12.15;2.72;;;6.50;99.90;;;;;;485708;245;27822;-73
2023/11/08 05:41:28;;;;;;;6.68;3.25;;;6.50;99.90;;;;;;484319;239;27422;-74
2023/11/08 05:43:29;;;;;;;5.15;3.20;;;6.50;99.90;;;;;;478713;248;28131;-73
2023/11/08 05:45:31;;;;;;;8.60;3.08;;;6.50;99.90;;;;;;478805;245;27488;-73
2023/11/08 05:47:32;;;;;;;6.68;2.50;;;6.50;99.90;;;;;;478845;248;27523;-74
2023/11/08 05:49:36;;;;;;;6.80;2.90;;;6.50;99.90;;;;;;478818;248;27899;-73
2023/11/08 05:51:37;;;;;;;4.43;3.05;;;6.50;99.90;;;;;;480876;239;29248;-74
2023/11/08 05:53:41;;;;;;;5.75;3.35;;;6.50;99.90;;;;;;483259;246;27459;-74
2023/11/08 05:55:40;;;;;;;16.75;3.67;;;6.50;99.90;;;;;;483023;246;27603;-73
2023/11/08 05:57:41;;;;;;;8.88;5.15;;;6.40;99.90;;;;;;483300;246;27884;-75
2023/11/08 05:59:43;;;;;;;7.28;3.67;;;6.40;99.90;;;;;;483321;246;27564;-73
2023/11/08 06:01:44;;;;;;;12.32;8.10;;;6.50;99.90;;;;;;482538;239;27531;-73
2023/11/08 06:03:45;;;;;;;9.07;6.97;;;6.50;99.90;;;;;;488541;242;27835;-73
2023/11/08 06:05:46;;;;;;;10.95;3.83;;;6.50;99.90;;;;;;488542;243;27441;-73
2023/11/08 06:07:47;;;;;;;5.30;3.30;;;6.50;99.90;;;;;;488530;243;27425;-74
2023/11/08 06:09:50;;;;;;;3.92;3.47;;;6.50;99.90;;;;;;488601;243;27398;-73
2023/11/08 06:11:50;;;;;;;5.72;3.00;;;6.50;99.90;;;;;;485043;242;27467;-73
2023/11/08 06:13:51;;;;;;;9.40;2.75;;;6.50;99.90;;;;;;478583;248;27679;-73
2023/11/08 06:15:53;;;;;;;3.78;2.37;;;6.50;99.90;;;;;;478587;248;28144;-73
2023/11/08 06:17:54;;;;;;;6.37;3.00;;;6.50;99.90;;;;;;478593;248;28028;-73
2023/11/08 06:19:55;;;;;;;3.90;3.20;;;6.50;99.90;;;;;;478588;248;27516;-73
2023/11/08 06:21:56;;;;;;;3.28;2.75;;;6.60;99.90;;;;;;474607;243;27502;-73
2023/11/08 06:23:59;;;;;;;4.18;2.25;;;6.50;99.90;;;;;;468699;254;27906;-73
2023/11/08 06:25:59;;;;;;;8.43;2.15;;;6.50;99.90;;;;;;468656;254;27473;-73
2023/11/08 06:28:00;;;;;;;5.70;2.78;;;6.60;99.90;;;;;;468701;254;27545;-73
2023/11/08 06:30:02;;;;;;;5.28;2.50;;;6.60;99.90;;;;;;468712;254;27870;-73
2023/11/08 06:32:04;;;;;;;6.32;2.22;;;6.60;99.90;;;;;;471963;236;27989;-73
2023/11/08 06:34:04;;;;;;;6.95;2.37;;;6.60;99.90;;;;;;482009;247;27513;-74
2023/11/08 06:36:05;;;;;;;10.52;2.67;;;6.60;99.90;;;;;;482078;247;27612;-73
2023/11/08 06:38:06;;;;;;;2.30;2.10;;;6.60;99.90;;;;;;482044;247;27516;-74
2023/11/08 06:40:09;;;;;;;3.37;1.95;;;6.60;99.90;;;;;;460183;257;27701;-73
2023/11/08 06:42:09;;;;;;;6.25;2.22;;;6.60;99.90;;;;;;480624;241;27456;-74
2023/11/08 06:44:10;;;;;;;4.53;2.58;;;6.60;99.90;;;;;;480998;247;27968;-74
2023/11/08 06:46:11;;;;;;;4.12;2.10;;;6.60;99.90;;;;;;474169;251;27491;-73
2023/11/08 06:48:13;;;;;;;10.07;3.15;;;6.60;99.90;;;;;;476722;249;27449;-74
2023/11/08 06:50:14;;;;;;;7.55;2.40;;;6.70;99.90;;;;;;476667;249;27455;-73
2023/11/08 06:52:15;;;;;;;3.10;2.10;;;6.60;99.90;;;;;;463909;245;27448;-74
2023/11/08 06:54:16;;;;;;;7.12;3.15;;;6.70;99.90;;;;;;470445;251;27549;-73
2023/11/08 06:56:18;;;;;;;7.62;2.80;;;6.70;99.90;;;;;;470441;251;27872;-73
2023/11/08 06:58:19;;;;;;;9.88;2.70;;;6.70;99.90;;;;;;470429;251;27432;-73
2023/11/08 07:00:20;;;;;;;2.30;1.95;;;6.70;99.90;;;;;;470439;251;27452;-74
2023/11/08 07:02:22;;;;;;;8.98;2.75;;;6.70;99.90;;;;;;474944;235;27878;-73
2023/11/08 07:04:23;;;;;;;7.82;2.58;;;6.70;99.90;;;;;;477845;249;27943;-74
2023/11/08 07:06:24;;;;;;;3.83;1.77;;;6.70;99.90;;;;;;486956;244;27551;-73
2023/11/08 07:08:26;;;;;;;9.02;2.45;;;6.70;99.90;;;;;;491545;240;28814;-73
2023/11/08 07:10:27;;;;;;;5.30;2.20;;;6.70;99.90;;;;;;486798;244;27511;-74
2023/11/08 07:12:28;;;;;;;6.90;2.77;;;6.70;99.90;;;;;;488049;239;27377;-73
2023/11/08 07:14:29;;;;;;;7.87;2.60;;;6.70;99.90;;;;;;493010;239;28720;-73
2023/11/08 07:16:30;;;;;;;7.12;2.40;;;6.80;99.90;;;;;;497687;239;28878;-74
2023/11/08 07:18:32;;;;;;;8.07;2.87;;;6.80;99.90;;;;;;497738;239;27558;-74
2023/11/08 07:20:33;;;;;;;6.28;3.10;;;6.80;99.90;;;;;;497709;239;28841;-73
2023/11/08 07:22:35;;;;;;;7.33;2.37;;;6.80;99.90;;;;;;491222;237;27405;-73
2023/11/08 07:24:36;;;;;;;5.68;2.20;;;6.80;99.90;;;;;;489625;243;28614;-73
2023/11/08 07:26:37;;;;;;;7.03;3.20;;;6.80;99.90;;;;;;489683;242;27459;-74
2023/11/08 07:28:40;;;;;;;4.25;2.15;;;6.80;99.90;;;;;;489708;242;28387;-73
2023/11/08 07:30:40;;;;;;;4.18;2.58;;;6.80;99.90;;;;;;489388;243;28011;-74
2023/11/08 07:32:40;;;;;;;6.40;2.40;;;6.80;99.90;;;;;;486415;236;27527;-74
2023/11/08 07:34:42;;;;;;;4.67;2.70;;;6.80;99.90;;;;;;485271;245;27477;-73
2023/11/08 07:36:43;;;;;;;7.70;2.30;;;6.80;99.90;;;;;;492827;241;28744;-74
2023/11/08 07:38:44;;;;;;;3.20;2.22;;;6.80;99.90;;;;;;493339;240;28073;-73
2023/11/08 07:40:46;;;;;;;7.97;3.05;;;6.80;99.90;;;;;;477215;249;27937;-74
2023/11/08 07:42:47;;;;;;;5.03;3.30;;;6.80;99.90;;;;;;478551;242;27454;-74
2023/11/08 07:44:48;;;;;;;4.43;2.50;;;6.80;99.90;;;;;;487350;244;27415;-75
2023/11/08 07:46:49;;;;;;;5.90;2.70;;;6.80;99.90;;;;;;487249;244;27436;-73
2023/11/08 07:48:53;;;;;;;3.70;2.37;;;6.90;99.90;;;;;;470974;252;28936;-74
2023/11/08 07:50:52;;;;;;;5.10;3.20;;;6.90;99.90;;;;;;470860;248;28002;-73
2023/11/08 07:52:53;;;;;;;7.47;3.90;;;6.90;99.90;;;;;;477780;235;27565;-74
2023/11/08 07:54:54;;;;;;;7.83;2.77;;;7.00;99.90;;;;;;481095;247;28782;-73
2023/11/08 07:56:56;;;;;;;11.70;7.55;;;7.00;99.90;;;;;;481084;247;28919;-73
2023/11/08 07:59:00;;;;;;;8.95;5.80;;;7.10;99.90;;;;;;481199;247;27437;-73
2023/11/08 08:03:13;;;;;;;6.27;3.60;;;7.10;99.90;;;;;;486216;241;27432;-73
2023/11/08 08:05:12;;;;;;;2.97;2.30;;;7.20;99.90;;;;;;479542;248;28006;-74
2023/11/08 08:07:13;;;;;;;5.63;2.53;;;7.20;99.90;;;;;;486087;244;28704;-73
2023/11/08 08:09:17;;;;;;;4.63;2.27;;;7.30;99.90;;;;;;479831;248;28909;-74
2023/11/08 08:11:15;;;;;;;4.93;2.00;;;7.40;99.90;;;;;;485290;236;28060;-74
2023/11/08 08:13:18;;;;;;;4.62;2.00;;;7.30;99.90;;;;;;493110;240;28329;-74
2023/11/08 08:15:18;;;;;;;3.40;2.10;;;7.40;99.90;;;;;;493116;241;27904;-73
2023/11/08 08:17:20;;;;;;;3.73;2.07;;;7.50;99.90;;;;;;493250;241;27764;-74
2023/11/08 08:19:22;;;;;;;5.57;1.63;;;7.50;99.90;;;;;;493272;241;27851;-74
2023/11/08 08:21:21;;;;;;;4.67;1.70;;;7.60;99.90;;;;;;490773;237;27983;-73
2023/11/08 08:23:23;;;;;;;3.97;1.87;;;7.60;99.90;;;;;;477593;249;27560;-73
2023/11/08 08:25:24;;;;;;;4.10;2.30;;;7.60;99.90;;;;;;477030;249;28423;-74
2023/11/08 08:27:25;;;;;;;3.40;1.70;;;7.60;99.90;;;;;;483322;245;28108;-74
2023/11/08 08:29:28;;;;;;;4.33;2.20;;;7.60;99.90;;;;;;483235;246;28378;-73
2023/11/08 08:31:28;;;;;;;8.43;2.33;;;7.70;99.90;;;;;;483209;246;30543;-73
2023/11/08 08:33:29;;;;;;;5.47;2.10;;;7.70;99.90;;;;;;483316;246;28206;-74
2023/11/08 08:35:30;;;;;;;4.20;1.70;;;7.70;99.90;;;;;;483293;246;27976;-73
2023/11/08 08:37:32;;;;;;;3.70;2.10;;;7.70;99.90;;;;;;483280;246;28083;-75
2023/11/08 08:39:33;;;;;;;3.83;1.70;;;7.70;99.90;;;;;;483177;246;27878;-73
2023/11/08 08:41:34;;;;;;;2.70;1.57;;;7.70;99.90;;;;;;483183;246;27864;-74
2023/11/08 08:43:35;;;;;;;6.60;1.63;;;7.70;99.90;;;;;;483212;246;28048;-73
2023/11/08 08:45:36;;;;;;;6.73;1.97;;;7.80;99.90;;;;;;483173;246;28043;-73
2023/11/08 08:47:38;;;;;;;2.30;1.70;;;7.80;99.90;;;;;;483295;246;27865;-74
2023/11/08 08:49:39;;;;;;;4.10;1.93;;;7.80;99.90;;;;;;483307;246;28032;-75
2023/11/08 08:51:40;;;;;;;3.67;1.83;;;7.90;99.90;;;;;;483214;246;27861;-73
2023/11/08 08:53:41;;;;;;;2.20;1.93;;;7.80;99.90;;;;;;483228;246;27920;-73
2023/11/08 08:55:43;;;;;;;2.33;1.50;;;7.90;99.90;;;;;;483240;245;27805;-73
2023/11/08 08:57:46;;;;;;;7.40;1.97;;;7.90;99.90;;;;;;483296;246;27841;-74
2023/11/08 08:59:45;;;;;;;7.40;1.87;;;7.90;99.90;;;;;;483146;246;28018;-74
2023/11/08 09:01:46;;;;;;;3.40;1.70;;;7.90;99.90;;;;;;483286;245;28053;-74
2023/11/08 09:03:49;;;;;;;2.17;1.50;;;8.00;99.90;;;;;;483293;246;28554;-75
2023/11/08 09:05:49;;;;;;;4.83;2.27;;;7.90;99.90;;;;;;483247;246;27538;-74
2023/11/08 09:07:50;;;;;;;2.80;1.60;;;8.00;99.90;;;;;;483327;246;28012;-73
2023/11/08 09:09:51;;;;;;;4.60;2.40;;;7.90;99.90;;;;;;483270;246;27807;-74
2023/11/08 09:11:53;;;;;;;4.77;1.30;;;7.90;99.90;;;;;;483269;246;27842;-74
2023/11/08 09:13:54;;;;;;;4.90;1.63;;;7.90;99.90;;;;;;483234;246;27620;-74
2023/11/08 09:15:55;;;;;;;4.10;1.63;;;7.90;99.90;;;;;;483169;246;27675;-73
2023/11/08 09:17:56;;;;;;;4.00;1.43;;;7.90;99.90;;;;;;483233;246;27978;-74
2023/11/08 09:19:58;;;;;;;6.33;1.40;;;7.90;99.90;;;;;;483228;246;27584;-73
2023/11/08 09:21:59;;;;;;;3.37;1.80;;;7.90;99.90;;;;;;483212;246;28037;-73
2023/11/08 09:24:00;;;;;;;2.47;1.60;;;7.90;99.90;;;;;;483236;246;28516;-74
2023/11/08 09:26:01;;;;;;;4.30;1.57;;;7.90;99.90;;;;;;483221;246;28376;-73
2023/11/08 09:28:03;;;;;;;2.77;1.60;;;8.00;99.90;;;;;;483170;246;28554;-74
2023/11/08 09:30:04;;;;;;;6.40;1.80;;;8.00;99.90;;;;;;483211;246;28616;-73
2023/11/08 09:32:05;;;;;;;4.90;1.70;;;8.00;99.90;;;;;;483192;246;28132;-74
2023/11/08 09:34:07;;;;;;;4.20;1.33;;;8.10;99.90;;;;;;483213;246;27854;-74
2023/11/08 09:36:08;;;;;;;3.13;1.40;;;8.20;99.90;;;;;;483232;246;27702;-74
2023/11/08 09:38:12;;;;;;;3.03;1.80;;;8.20;99.90;;;;;;483298;246;28097;-74
2023/11/08 09:40:10;;;;;;;2.93;1.43;;;8.20;99.90;;;;;;482916;246;28073;-76
2023/11/08 09:42:13;;;;;;;3.30;1.70;;;8.20;99.90;;;;;;483229;246;27916;-73
2023/11/08 09:44:13;;;;;;;1.97;1.77;;;8.30;99.90;;;;;;483127;246;28162;-75
2023/11/08 09:46:14;;;;;;;2.30;1.40;;;8.40;99.90;;;;;;483222;246;28023;-73
2023/11/08 09:48:15;;;;;;;8.23;2.27;;;8.50;99.90;;;;;;483231;245;27834;-74
2023/11/08 09:50:16;;;;;;;4.33;1.60;;;8.50;99.90;;;;;;483223;246;27873;-74
2023/11/08 09:52:18;;;;;;;4.50;2.10;;;8.50;99.90;;;;;;483195;246;28046;-73
2023/11/08 09:54:19;;;;;;;2.13;1.33;;;8.50;99.90;;;;;;483282;246;27635;-75
2023/11/08 09:56:20;;;;;;;2.60;1.60;;;8.50;99.90;;;;;;483261;246;27824;-74
2023/11/08 09:58:22;;;;;;;5.10;1.80;;;8.50;99.90;;;;;;483189;246;27981;-74
2023/11/08 10:00:25;;;;;;;6.33;2.27;;;8.50;99.90;;;;;;483139;246;28034;-74
2023/11/08 10:02:24;;;;;;;1.90;1.50;;;8.40;99.90;;;;;;483003;246;28365;-74
2023/11/08 10:04:25;;;;;;;3.67;1.50;;;8.40;99.90;;;;;;483216;246;28440;-74
2023/11/08 10:06:29;;;;;;;2.83;1.60;;;8.40;99.90;;;;;;483346;246;28623;-73
2023/11/08 10:08:28;;;;;;;3.47;1.30;;;8.40;99.90;;;;;;483029;246;28497;-73
2023/11/08 10:10:29;;;;;;;3.00;1.53;;;8.50;99.90;;;;;;483266;246;28428;-75
2023/11/08 10:12:32;;;;;;;3.13;1.73;;;8.50;99.90;;;;;;483345;246;28490;-74
2023/11/08 10:14:34;;;;;;;1.27;1.17;;;8.50;99.90;;;;;;483169;246;28009;-74
2023/11/08 10:16:33;;;;;;;2.27;2.00;;;8.50;99.90;;;;;;483023;246;28156;-76
2023/11/08 10:18:34;;;;;;;4.60;1.30;;;8.50;99.90;;;;;;483315;246;27695;-74
2023/11/08 10:20:37;;;;;;;2.30;1.60;;;8.50;99.90;;;;;;483322;245;27706;-74
2023/11/08 10:22:37;;;;;;;4.83;1.50;;;8.40;99.90;;;;;;483139;246;27720;-74
2023/11/08 10:24:38;;;;;;;2.60;1.47;;;8.40;99.90;;;;;;483233;246;27936;-74
2023/11/08 10:26:39;;;;;;;2.93;1.33;;;8.50;99.90;;;;;;483286;246;28020;-74
2023/11/08 10:28:40;;;;;;;2.80;1.40;;;8.60;99.90;;;;;;482758;246;28319;-74
2023/11/08 10:30:42;;;;;;;2.53;1.50;;;8.50;99.90;;;;;;482901;246;28045;-74
2023/11/08 10:32:46;;;;;;;3.17;1.53;;;8.60;99.90;;;;;;482882;246;27628;-73
2023/11/08 10:34:44;;;;;;;2.70;1.40;;;8.60;99.90;;;;;;483020;246;27963;-74
2023/11/08 10:36:45;;;;;;;3.00;1.47;;;8.80;99.90;;;;;;483330;246;27987;-75
2023/11/08 10:38:46;;;;;;;2.60;1.67;;;8.80;99.90;;;;;;483296;246;28023;-74
2023/11/08 10:40:48;;;;;;;1.50;1.40;;;8.80;99.90;;;;;;483344;246;28051;-73
2023/11/08 10:42:49;;;;;;;5.50;1.47;;;8.70;99.90;;;;;;483254;246;28973;-74
2023/11/08 10:44:51;;;;;;;5.60;1.30;;;8.70;99.90;;;;;;483276;246;28536;-73